SWA4525 KSTS-KSAN
Flight info
| Callsign | SWA4525 |
|---|---|
| Flight time | 1h 16m |
| Altitude | 35000 |
| Route | CHRLY8 ROZZA DCT SAU DCT SFO DCT SUSEY DCT EBAYE DCT AVE J1 LAX COMIX2 |
| Aircraft | B737/M-SDE2E3FGHIRWXY/LB1 |
Departure
| Time | 2026-04-21 00:54 |
|---|---|
| Airport | Charles M. Schulz Sonoma County Airport (KSTS) |
Arrival
| Time | 2026-04-21 02:10 |
|---|---|
| Airport | San Diego International Airport (KSAN) |
| Time | Latitude | Longitude | Altitude | Speed | Heading |
|---|---|---|---|---|---|
| 2026-04-21 00:38 | 38.51007 | -122.80682 | 140 ft | 0 kts | 66° |
| 2026-04-21 00:44 | 38.50999 | -122.80708 | 132 ft | 3 kts | 68° |
| 2026-04-21 00:45 | 38.50996 | -122.80741 | 138 ft | 2 kts | 149° |
| 2026-04-21 00:45 | 38.51006 | -122.80747 | 139 ft | 2 kts | 155° |
| 2026-04-21 00:45 | 38.51007 | -122.80748 | 123 ft | 0 kts | 155° |
| 2026-04-21 00:47 | 38.51006 | -122.80748 | 139 ft | 1 kts | 155° |
| 2026-04-21 00:48 | 38.50998 | -122.80743 | 139 ft | 2 kts | 155° |
| 2026-04-21 00:48 | 38.50981 | -122.80733 | 138 ft | 3 kts | 155° |
| 2026-04-21 00:48 | 38.50961 | -122.80721 | 137 ft | 4 kts | 155° |
| 2026-04-21 00:48 | 38.50932 | -122.80706 | 135 ft | 6 kts | 156° |
| 2026-04-21 00:49 | 38.50882 | -122.80679 | 140 ft | 10 kts | 158° |
| 2026-04-21 00:49 | 38.50809 | -122.80642 | 134 ft | 11 kts | 159° |
| 2026-04-21 00:49 | 38.50773 | -122.80628 | 134 ft | 4 kts | 172° |
| 2026-04-21 00:49 | 38.50730 | -122.80625 | 135 ft | 8 kts | 178° |
| 2026-04-21 00:50 | 38.50664 | -122.80624 | 135 ft | 11 kts | 180° |
| 2026-04-21 00:50 | 38.50581 | -122.80598 | 135 ft | 14 kts | 156° |
| 2026-04-21 00:50 | 38.50481 | -122.80546 | 136 ft | 17 kts | 158° |
| 2026-04-21 00:50 | 38.50367 | -122.80485 | 137 ft | 18 kts | 156° |
| 2026-04-21 00:51 | 38.50280 | -122.80464 | 138 ft | 9 kts | 225° |
| 2026-04-21 00:51 | 38.50254 | -122.80537 | 137 ft | 9 kts | 247° |
| 2026-04-21 00:51 | 38.50259 | -122.80584 | 137 ft | 5 kts | 326° |
| 2026-04-21 00:51 | 38.50268 | -122.80589 | 136 ft | 0 kts | 338° |
| 2026-04-21 00:53 | 38.50308 | -122.80610 | 136 ft | 31 kts | 337° |
| 2026-04-21 00:53 | 38.50769 | -122.80858 | 134 ft | 111 kts | 337° |
| 2026-04-21 00:54 | 38.51693 | -122.81351 | 212 ft | 170 kts | 337° |
| 2026-04-21 00:54 | 38.52772 | -122.82030 | 1130 ft | 168 kts | 330° |
| 2026-04-21 00:54 | 38.53764 | -122.82810 | 2130 ft | 173 kts | 322° |
| 2026-04-21 00:54 | 38.54786 | -122.83837 | 2606 ft | 207 kts | 304° |
| 2026-04-21 00:55 | 38.55224 | -122.85654 | 2924 ft | 232 kts | 262° |
| 2026-04-21 00:55 | 38.54534 | -122.87558 | 3600 ft | 244 kts | 222° |
| 2026-04-21 00:55 | 38.53067 | -122.88597 | 4768 ft | 243 kts | 192° |
| 2026-04-21 00:55 | 38.51399 | -122.88453 | 6017 ft | 244 kts | 165° |
| 2026-04-21 00:56 | 38.49809 | -122.87627 | 7099 ft | 248 kts | 160° |
| 2026-04-21 00:56 | 38.48227 | -122.86697 | 8096 ft | 253 kts | 160° |
| 2026-04-21 00:56 | 38.46626 | -122.85748 | 9131 ft | 254 kts | 161° |
| 2026-04-21 00:56 | 38.45012 | -122.84804 | 10178 ft | 255 kts | 161° |
| 2026-04-21 00:57 | 38.43339 | -122.83847 | 10779 ft | 276 kts | 161° |
| 2026-04-21 00:57 | 38.41476 | -122.82801 | 11009 ft | 307 kts | 161° |
| 2026-04-21 00:57 | 38.39423 | -122.82057 | 11602 ft | 314 kts | 178° |
| 2026-04-21 00:57 | 38.37254 | -122.82318 | 12658 ft | 313 kts | 190° |
| 2026-04-21 00:58 | 38.35124 | -122.82933 | 13842 ft | 314 kts | 192° |
| 2026-04-21 00:58 | 38.32994 | -122.83639 | 14754 ft | 318 kts | 193° |
| 2026-04-21 00:58 | 38.30832 | -122.84383 | 15546 ft | 324 kts | 193° |
| 2026-04-21 00:58 | 38.28638 | -122.85148 | 16308 ft | 329 kts | 193° |
| 2026-04-21 00:59 | 38.26442 | -122.85917 | 17118 ft | 332 kts | 193° |
| 2026-04-21 00:59 | 38.24211 | -122.86700 | 17869 ft | 336 kts | 193° |
| 2026-04-21 00:59 | 38.21918 | -122.87484 | 18526 ft | 341 kts | 190° |
| 2026-04-21 00:59 | 38.19551 | -122.87574 | 19144 ft | 344 kts | 173° |
| 2026-04-21 01:00 | 38.17216 | -122.86786 | 19797 ft | 350 kts | 165° |
| 2026-04-21 01:00 | 38.14942 | -122.85613 | 20438 ft | 357 kts | 159° |
| 2026-04-21 01:00 | 38.12776 | -122.83967 | 21020 ft | 370 kts | 149° |
| 2026-04-21 01:00 | 38.10825 | -122.81832 | 21596 ft | 378 kts | 145° |
| 2026-04-21 01:01 | 38.08875 | -122.79544 | 22078 ft | 385 kts | 145° |
| 2026-04-21 01:01 | 38.06903 | -122.77195 | 22567 ft | 391 kts | 145° |
| 2026-04-21 01:01 | 38.04906 | -122.74823 | 23101 ft | 395 kts | 145° |
| 2026-04-21 01:01 | 38.02879 | -122.72436 | 23625 ft | 399 kts | 146° |
| 2026-04-21 01:02 | 38.00824 | -122.70034 | 24080 ft | 402 kts | 146° |
| 2026-04-21 01:02 | 37.98758 | -122.67631 | 24582 ft | 404 kts | 146° |
| 2026-04-21 01:02 | 37.96684 | -122.65225 | 25065 ft | 405 kts | 146° |
| 2026-04-21 01:02 | 37.94591 | -122.62802 | 25523 ft | 408 kts | 146° |
| 2026-04-21 01:03 | 37.92517 | -122.60405 | 25889 ft | 411 kts | 146° |
| 2026-04-21 01:03 | 37.90402 | -122.57962 | 26270 ft | 415 kts | 146° |
| 2026-04-21 01:03 | 37.88258 | -122.55487 | 26702 ft | 417 kts | 146° |
| 2026-04-21 01:03 | 37.86068 | -122.53086 | 27083 ft | 415 kts | 150° |
| 2026-04-21 01:04 | 37.83687 | -122.51071 | 27485 ft | 408 kts | 158° |
| 2026-04-21 01:04 | 37.81152 | -122.49464 | 27855 ft | 408 kts | 160° |
| 2026-04-21 01:04 | 37.78592 | -122.47886 | 28225 ft | 411 kts | 160° |
| 2026-04-21 01:04 | 37.76015 | -122.46288 | 28588 ft | 413 kts | 160° |
| 2026-04-21 01:05 | 37.73432 | -122.44672 | 28998 ft | 414 kts | 160° |
| 2026-04-21 01:05 | 37.70862 | -122.43051 | 29564 ft | 412 kts | 160° |
| 2026-04-21 01:05 | 37.68342 | -122.41458 | 30189 ft | 408 kts | 160° |
| 2026-04-21 01:05 | 37.65810 | -122.39861 | 30691 ft | 406 kts | 160° |
| 2026-04-21 01:06 | 37.63294 | -122.38237 | 31089 ft | 408 kts | 157° |
| 2026-04-21 01:06 | 37.60880 | -122.36270 | 31355 ft | 418 kts | 150° |
| 2026-04-21 01:06 | 37.58640 | -122.33855 | 31680 ft | 425 kts | 146° |
| 2026-04-21 01:06 | 37.56446 | -122.31355 | 32115 ft | 424 kts | 146° |
| 2026-04-21 01:07 | 37.54266 | -122.28866 | 32587 ft | 422 kts | 146° |
| 2026-04-21 01:07 | 37.52096 | -122.26396 | 33032 ft | 420 kts | 146° |
| 2026-04-21 01:07 | 37.49924 | -122.23934 | 33428 ft | 419 kts | 146° |
| 2026-04-21 01:07 | 37.47754 | -122.21487 | 33776 ft | 418 kts | 146° |
| 2026-04-21 01:08 | 37.45577 | -122.19041 | 34027 ft | 420 kts | 146° |
| 2026-04-21 01:08 | 37.43419 | -122.16621 | 34324 ft | 420 kts | 146° |
| 2026-04-21 01:08 | 37.41237 | -122.14175 | 34646 ft | 419 kts | 146° |
| 2026-04-21 01:08 | 37.39061 | -122.11738 | 34932 ft | 419 kts | 146° |
| 2026-04-21 01:09 | 37.34656 | -122.06819 | 34933 ft | 424 kts | 146° |
| 2026-04-21 01:09 | 37.30252 | -122.01899 | 34950 ft | 423 kts | 146° |
| 2026-04-21 01:10 | 37.25854 | -121.96994 | 34968 ft | 423 kts | 146° |
| 2026-04-21 01:10 | 37.21452 | -121.92096 | 34973 ft | 423 kts | 146° |
| 2026-04-21 01:11 | 37.17044 | -121.87198 | 34953 ft | 423 kts | 146° |
| 2026-04-21 01:11 | 37.12659 | -121.82333 | 34954 ft | 423 kts | 146° |
| 2026-04-21 01:12 | 37.08246 | -121.77446 | 34958 ft | 423 kts | 146° |
| 2026-04-21 01:12 | 37.03820 | -121.72554 | 34964 ft | 425 kts | 146° |
| 2026-04-21 01:13 | 36.99370 | -121.67644 | 34955 ft | 426 kts | 146° |
| 2026-04-21 01:13 | 36.94917 | -121.62733 | 34972 ft | 427 kts | 146° |
| 2026-04-21 01:14 | 36.90462 | -121.57834 | 34967 ft | 430 kts | 146° |
| 2026-04-21 01:14 | 36.85946 | -121.52874 | 34946 ft | 432 kts | 146° |
| 2026-04-21 01:15 | 36.81432 | -121.47921 | 34956 ft | 433 kts | 146° |
| 2026-04-21 01:15 | 36.76894 | -121.42951 | 34964 ft | 434 kts | 146° |
| 2026-04-21 01:16 | 36.72375 | -121.38010 | 34966 ft | 435 kts | 146° |
| 2026-04-21 01:16 | 36.67819 | -121.33038 | 34930 ft | 436 kts | 146° |
| 2026-04-21 01:17 | 36.63258 | -121.28067 | 34940 ft | 436 kts | 146° |
| 2026-04-21 01:17 | 36.58689 | -121.23096 | 34959 ft | 436 kts | 146° |
| 2026-04-21 01:18 | 36.54102 | -121.18114 | 34918 ft | 438 kts | 145° |
| 2026-04-21 01:18 | 36.49519 | -121.13143 | 34951 ft | 438 kts | 145° |
| 2026-04-21 01:19 | 36.44929 | -121.08172 | 34972 ft | 438 kts | 145° |
| 2026-04-21 01:19 | 36.40572 | -121.02780 | 34978 ft | 446 kts | 137° |
| 2026-04-21 01:20 | 36.36576 | -120.96945 | 34979 ft | 447 kts | 137° |
| 2026-04-21 01:20 | 36.32544 | -120.91028 | 34975 ft | 448 kts | 137° |
| 2026-04-21 01:21 | 36.28479 | -120.85155 | 34991 ft | 449 kts | 137° |
| 2026-04-21 01:21 | 36.24395 | -120.79305 | 34988 ft | 449 kts | 137° |
| 2026-04-21 01:22 | 36.20306 | -120.73465 | 34981 ft | 449 kts | 137° |
| 2026-04-21 01:22 | 36.16220 | -120.67637 | 34995 ft | 448 kts | 137° |
| 2026-04-21 01:23 | 36.12161 | -120.61858 | 34985 ft | 447 kts | 137° |
| 2026-04-21 01:23 | 36.08075 | -120.56051 | 34985 ft | 448 kts | 137° |
| 2026-04-21 01:24 | 36.03984 | -120.50244 | 34997 ft | 447 kts | 137° |
| 2026-04-21 01:24 | 35.99895 | -120.44451 | 34977 ft | 447 kts | 137° |
| 2026-04-21 01:25 | 35.96498 | -120.39646 | 34965 ft | 448 kts | 137° |
| 2026-04-21 01:25 | 35.91717 | -120.32894 | 34979 ft | 449 kts | 137° |
| 2026-04-21 01:26 | 35.88274 | -120.28037 | 34980 ft | 449 kts | 137° |
| 2026-04-21 01:26 | 35.84114 | -120.22386 | 34986 ft | 447 kts | 140° |
| 2026-04-21 01:27 | 35.79748 | -120.16921 | 34966 ft | 446 kts | 141° |
| 2026-04-21 01:27 | 35.75397 | -120.11463 | 34974 ft | 447 kts | 141° |
| 2026-04-21 01:28 | 35.71064 | -120.05968 | 34975 ft | 446 kts | 140° |
| 2026-04-21 01:28 | 35.66739 | -120.00482 | 34977 ft | 447 kts | 140° |
| 2026-04-21 01:29 | 35.62114 | -119.95493 | 34987 ft | 437 kts | 150° |
| 2026-04-21 01:29 | 35.57148 | -119.91253 | 34966 ft | 437 kts | 152° |
| 2026-04-21 01:30 | 35.52149 | -119.86997 | 34969 ft | 438 kts | 151° |
| 2026-04-21 01:30 | 35.47161 | -119.82699 | 34938 ft | 438 kts | 151° |
| 2026-04-21 01:31 | 35.42176 | -119.78388 | 34933 ft | 438 kts | 151° |
| 2026-04-21 01:31 | 35.37194 | -119.74085 | 34947 ft | 437 kts | 151° |
| 2026-04-21 01:32 | 35.32213 | -119.69792 | 34921 ft | 437 kts | 151° |
| 2026-04-21 01:32 | 35.27275 | -119.65542 | 34936 ft | 437 kts | 151° |
| 2026-04-21 01:33 | 35.22299 | -119.61272 | 34938 ft | 436 kts | 152° |
| 2026-04-21 01:33 | 35.17312 | -119.57011 | 34918 ft | 437 kts | 152° |
| 2026-04-21 01:34 | 35.12333 | -119.52761 | 34903 ft | 436 kts | 152° |
| 2026-04-21 01:34 | 35.07393 | -119.48547 | 34921 ft | 435 kts | 152° |
| 2026-04-21 01:35 | 35.02434 | -119.44323 | 34940 ft | 434 kts | 152° |
| 2026-04-21 01:35 | 34.97477 | -119.40110 | 34945 ft | 434 kts | 152° |
| 2026-04-21 01:36 | 34.92509 | -119.35891 | 34955 ft | 434 kts | 152° |
| 2026-04-21 01:36 | 34.87571 | -119.31705 | 34970 ft | 435 kts | 152° |
| 2026-04-21 01:37 | 34.82594 | -119.27492 | 34977 ft | 436 kts | 152° |
| 2026-04-21 01:37 | 34.77603 | -119.23273 | 34958 ft | 437 kts | 152° |
| 2026-04-21 01:38 | 34.72607 | -119.19054 | 35003 ft | 437 kts | 152° |
| 2026-04-21 01:38 | 34.67597 | -119.14831 | 35004 ft | 438 kts | 152° |
| 2026-04-21 01:39 | 34.62588 | -119.10618 | 35018 ft | 438 kts | 152° |
| 2026-04-21 01:39 | 34.57574 | -119.06408 | 35032 ft | 438 kts | 152° |
| 2026-04-21 01:40 | 34.52558 | -119.02201 | 35016 ft | 438 kts | 152° |
| 2026-04-21 01:40 | 34.47565 | -118.98018 | 35028 ft | 438 kts | 151° |
| 2026-04-21 01:41 | 34.42551 | -118.93823 | 35026 ft | 437 kts | 151° |
| 2026-04-21 01:41 | 34.37547 | -118.89643 | 35022 ft | 437 kts | 151° |
| 2026-04-21 01:42 | 34.32704 | -118.85116 | 35017 ft | 442 kts | 144° |
| 2026-04-21 01:42 | 34.28140 | -118.80180 | 35012 ft | 443 kts | 143° |
| 2026-04-21 01:43 | 34.23542 | -118.75195 | 35002 ft | 443 kts | 144° |
| 2026-04-21 01:43 | 34.18927 | -118.70267 | 35006 ft | 443 kts | 144° |
| 2026-04-21 01:44 | 34.14292 | -118.65356 | 34973 ft | 443 kts | 144° |
| 2026-04-21 01:44 | 34.09676 | -118.60474 | 35000 ft | 443 kts | 144° |
| 2026-04-21 01:45 | 34.05039 | -118.55576 | 35039 ft | 444 kts | 144° |
| 2026-04-21 01:45 | 34.00380 | -118.50659 | 35033 ft | 445 kts | 144° |
| 2026-04-21 01:46 | 33.95714 | -118.45743 | 35024 ft | 445 kts | 144° |
| 2026-04-21 01:46 | 33.91170 | -118.40714 | 35034 ft | 449 kts | 139° |
| 2026-04-21 01:47 | 33.89039 | -118.37937 | 34893 ft | 455 kts | 137° |
| 2026-04-21 01:47 | 33.86920 | -118.35081 | 34634 ft | 457 kts | 137° |
| 2026-04-21 01:47 | 33.84805 | -118.32240 | 34398 ft | 455 kts | 137° |
| 2026-04-21 01:47 | 33.82673 | -118.29426 | 34166 ft | 455 kts | 137° |
| 2026-04-21 01:48 | 33.80514 | -118.26624 | 33924 ft | 457 kts | 138° |
| 2026-04-21 01:48 | 33.78347 | -118.23830 | 33636 ft | 458 kts | 137° |
| 2026-04-21 01:48 | 33.76179 | -118.21024 | 33375 ft | 458 kts | 137° |
| 2026-04-21 01:48 | 33.74018 | -118.18193 | 33098 ft | 459 kts | 137° |
| 2026-04-21 01:49 | 33.71863 | -118.15355 | 32783 ft | 458 kts | 136° |
| 2026-04-21 01:49 | 33.69729 | -118.12544 | 31864 ft | 462 kts | 136° |
| 2026-04-21 01:49 | 33.67563 | -118.09693 | 31058 ft | 462 kts | 136° |
| 2026-04-21 01:49 | 33.65393 | -118.06844 | 30265 ft | 462 kts | 136° |
| 2026-04-21 01:50 | 33.63235 | -118.04016 | 29494 ft | 458 kts | 135° |
| 2026-04-21 01:50 | 33.61096 | -118.01213 | 28796 ft | 452 kts | 136° |
| 2026-04-21 01:50 | 33.58985 | -117.98449 | 28131 ft | 446 kts | 136° |
| 2026-04-21 01:50 | 33.56900 | -117.95723 | 27477 ft | 441 kts | 136° |
| 2026-04-21 01:51 | 33.54833 | -117.93034 | 26819 ft | 435 kts | 137° |
| 2026-04-21 01:51 | 33.52710 | -117.90474 | 26172 ft | 429 kts | 140° |
| 2026-04-21 01:51 | 33.50560 | -117.88020 | 25538 ft | 425 kts | 141° |
| 2026-04-21 01:51 | 33.48416 | -117.85591 | 24900 ft | 421 kts | 140° |
| 2026-04-21 01:52 | 33.46325 | -117.83195 | 24245 ft | 418 kts | 140° |
| 2026-04-21 01:52 | 33.42141 | -117.78425 | 22851 ft | 411 kts | 142° |
| 2026-04-21 01:52 | 33.40022 | -117.76161 | 22170 ft | 406 kts | 142° |
| 2026-04-21 01:53 | 33.37911 | -117.73939 | 21530 ft | 401 kts | 143° |
| 2026-04-21 01:53 | 33.35827 | -117.71744 | 20908 ft | 397 kts | 143° |
| 2026-04-21 01:53 | 33.33770 | -117.69565 | 20287 ft | 393 kts | 142° |
| 2026-04-21 01:53 | 33.31767 | -117.67436 | 19681 ft | 389 kts | 142° |
| 2026-04-21 01:54 | 33.29754 | -117.65291 | 19077 ft | 385 kts | 142° |
| 2026-04-21 01:54 | 33.27761 | -117.63166 | 18451 ft | 383 kts | 142° |
| 2026-04-21 01:54 | 33.25778 | -117.61054 | 17746 ft | 381 kts | 142° |
| 2026-04-21 01:54 | 33.23802 | -117.58957 | 17069 ft | 378 kts | 142° |
| 2026-04-21 01:55 | 33.21841 | -117.56891 | 16495 ft | 373 kts | 142° |
| 2026-04-21 01:55 | 33.19898 | -117.54850 | 15838 ft | 371 kts | 142° |
| 2026-04-21 01:55 | 33.17966 | -117.52819 | 15289 ft | 368 kts | 142° |
| 2026-04-21 01:55 | 33.16055 | -117.50810 | 15119 ft | 363 kts | 142° |
| 2026-04-21 01:56 | 33.14187 | -117.48845 | 14997 ft | 350 kts | 143° |
| 2026-04-21 01:56 | 33.12318 | -117.47121 | 14969 ft | 333 kts | 149° |
| 2026-04-21 01:56 | 33.10423 | -117.45562 | 14979 ft | 332 kts | 149° |
| 2026-04-21 01:56 | 33.08519 | -117.44006 | 14964 ft | 328 kts | 149° |
| 2026-04-21 01:57 | 33.06670 | -117.42477 | 14955 ft | 316 kts | 149° |
| 2026-04-21 01:57 | 33.04913 | -117.41016 | 14948 ft | 300 kts | 149° |
| 2026-04-21 01:57 | 33.03251 | -117.39623 | 14962 ft | 284 kts | 149° |
| 2026-04-21 01:57 | 33.01693 | -117.38313 | 14960 ft | 272 kts | 149° |
| 2026-04-21 01:58 | 33.00150 | -117.37020 | 14975 ft | 272 kts | 149° |
| 2026-04-21 01:58 | 32.98572 | -117.35701 | 15000 ft | 280 kts | 149° |
| 2026-04-21 01:58 | 32.96962 | -117.34355 | 14999 ft | 285 kts | 149° |
| 2026-04-21 01:58 | 32.95338 | -117.32993 | 14981 ft | 283 kts | 149° |
| 2026-04-21 01:59 | 32.93745 | -117.31658 | 14737 ft | 277 kts | 149° |
| 2026-04-21 01:59 | 32.92171 | -117.30339 | 14197 ft | 278 kts | 149° |
| 2026-04-21 01:59 | 32.90575 | -117.29010 | 13593 ft | 281 kts | 149° |
| 2026-04-21 01:59 | 32.88975 | -117.27680 | 13079 ft | 279 kts | 149° |
| 2026-04-21 02:00 | 32.87397 | -117.26367 | 12603 ft | 275 kts | 149° |
| 2026-04-21 02:00 | 32.85843 | -117.25075 | 12127 ft | 268 kts | 148° |
| 2026-04-21 02:00 | 32.84338 | -117.23825 | 11467 ft | 266 kts | 148° |
| 2026-04-21 02:00 | 32.82828 | -117.22573 | 10743 ft | 264 kts | 148° |
| 2026-04-21 02:01 | 32.81453 | -117.21147 | 10007 ft | 266 kts | 128° |
| 2026-04-21 02:01 | 32.80670 | -117.19161 | 9256 ft | 266 kts | 109° |
| 2026-04-21 02:01 | 32.80198 | -117.17043 | 8562 ft | 262 kts | 106° |
| 2026-04-21 02:01 | 32.79776 | -117.15024 | 8324 ft | 242 kts | 107° |
| 2026-04-21 02:02 | 32.79365 | -117.13108 | 7782 ft | 238 kts | 107° |
| 2026-04-21 02:02 | 32.78947 | -117.11208 | 7209 ft | 238 kts | 107° |
| 2026-04-21 02:02 | 32.78526 | -117.09311 | 6703 ft | 236 kts | 107° |
| 2026-04-21 02:02 | 32.78107 | -117.07434 | 6221 ft | 234 kts | 108° |
| 2026-04-21 02:03 | 32.77686 | -117.05595 | 6004 ft | 232 kts | 108° |
| 2026-04-21 02:03 | 32.77240 | -117.03755 | 5642 ft | 230 kts | 109° |
| 2026-04-21 02:03 | 32.76801 | -117.01958 | 5493 ft | 225 kts | 108° |
| 2026-04-21 02:03 | 32.76360 | -117.00152 | 5315 ft | 229 kts | 108° |
| 2026-04-21 02:04 | 32.75901 | -116.98319 | 5143 ft | 233 kts | 111° |
| 2026-04-21 02:04 | 32.75099 | -116.96660 | 4860 ft | 232 kts | 136° |
| 2026-04-21 02:04 | 32.73773 | -116.95632 | 4582 ft | 228 kts | 162° |
| 2026-04-21 02:04 | 32.72225 | -116.95397 | 4328 ft | 222 kts | 186° |
| 2026-04-21 02:05 | 32.70787 | -116.95896 | 4042 ft | 209 kts | 209° |
| 2026-04-21 02:05 | 32.69702 | -116.96937 | 3826 ft | 196 kts | 230° |
| 2026-04-21 02:05 | 32.69020 | -116.98272 | 3569 ft | 190 kts | 250° |
| 2026-04-21 02:05 | 32.68913 | -116.99793 | 3375 ft | 187 kts | 279° |
| 2026-04-21 02:06 | 32.69165 | -117.01319 | 3146 ft | 187 kts | 282° |
| 2026-04-21 02:06 | 32.69465 | -117.02767 | 2872 ft | 174 kts | 284° |
| 2026-04-21 02:06 | 32.69772 | -117.04103 | 2671 ft | 158 kts | 285° |
| 2026-04-21 02:06 | 32.70053 | -117.05287 | 2477 ft | 143 kts | 285° |
| 2026-04-21 02:07 | 32.70320 | -117.06402 | 2280 ft | 139 kts | 285° |
| 2026-04-21 02:07 | 32.70583 | -117.07497 | 2149 ft | 137 kts | 285° |
| 2026-04-21 02:07 | 32.70851 | -117.08606 | 1954 ft | 141 kts | 285° |
| 2026-04-21 02:07 | 32.71113 | -117.09694 | 1741 ft | 138 kts | 285° |
| 2026-04-21 02:08 | 32.71373 | -117.10771 | 1520 ft | 135 kts | 285° |
| 2026-04-21 02:08 | 32.71634 | -117.11851 | 1343 ft | 137 kts | 285° |
| 2026-04-21 02:08 | 32.71897 | -117.12938 | 1122 ft | 135 kts | 285° |
| 2026-04-21 02:08 | 32.72150 | -117.13988 | 887 ft | 129 kts | 284° |
| 2026-04-21 02:09 | 32.72398 | -117.15011 | 702 ft | 131 kts | 285° |
| 2026-04-21 02:09 | 32.72652 | -117.16059 | 515 ft | 132 kts | 284° |
| 2026-04-21 02:09 | 32.72901 | -117.17103 | 281 ft | 130 kts | 284° |
| 2026-04-21 02:09 | 32.73152 | -117.18127 | 51 ft | 129 kts | 285° |
| 2026-04-21 02:10 | 32.73378 | -117.19056 | 23 ft | 91 kts | 286° |
| 2026-04-21 02:10 | 32.73449 | -117.19400 | 22 ft | 18 kts | 263° |
| 2026-04-21 02:10 | 32.73414 | -117.19530 | 23 ft | 11 kts | 251° |
| 2026-04-21 02:10 | 32.73407 | -117.19597 | 22 ft | 8 kts | 276° |
| 2026-04-21 02:11 | 32.73416 | -117.19658 | 22 ft | 7 kts | 269° |
| 2026-04-21 02:11 | 32.73389 | -117.19703 | 22 ft | 7 kts | 202° |
| 2026-04-21 02:11 | 32.73341 | -117.19716 | 21 ft | 6 kts | 181° |
| 2026-04-21 02:11 | 32.73305 | -117.19731 | 21 ft | 6 kts | 199° |
| 2026-04-21 02:12 | 32.73287 | -117.19753 | 21 ft | 3 kts | 261° |
| 2026-04-21 02:12 | 32.73296 | -117.19776 | 21 ft | 3 kts | 300° |
| 2026-04-21 02:12 | 32.73301 | -117.19786 | 21 ft | 0 kts | 300° |